Time,TemperatureF,DewpointF,PressureIn,WindDirection,WindDirectionDegrees,WindSpeedMPH,WindSpeedGustMPH,Humidity,HourlyPrecipIn,Conditions,Clouds,dailyrainin,SolarRadiationWatts/m^2,SoftwareType,DateUTC
2013-06-05 00:03:00,45.0,42.0,-100.00,SE,143,2.0,6.0,90,0.00,,,0.00,0.000000,,2013-06-05 04:03:00,
2013-06-05 00:13:00,45.0,42.0,-100.00,SE,143,2.0,6.0,90,0.00,,,0.00,0.000000,,2013-06-05 04:13:00,
2013-06-05 00:23:00,45.0,42.0,-100.00,SE,143,2.0,6.0,90,0.00,,,0.00,0.000000,,2013-06-05 04:23:00,
2013-06-05 00:53:00,44.0,42.0,-100.00,ESE,117,2.0,4.0,94,0.00,,,0.00,0.000000,,2013-06-05 04:53:00,
2013-06-05 01:02:00,44.0,42.0,-100.00,ESE,117,2.0,4.0,94,0.00,,,0.00,0.000000,,2013-06-05 05:02:00,
2013-06-05 01:12:00,44.0,42.0,-100.00,ESE,117,2.0,4.0,94,0.00,,,0.00,0.000000,,2013-06-05 05:12:00,
2013-06-05 01:22:00,44.0,42.0,-100.00,ESE,117,2.0,4.0,94,0.00,,,0.00,0.000000,,2013-06-05 05:22:00,
2013-06-05 01:53:00,42.0,41.0,-100.00,ESE,110,2.0,4.0,97,0.00,,,0.00,0.000000,,2013-06-05 05:53:00,
2013-06-05 02:02:00,42.0,41.0,-100.00,ESE,110,2.0,4.0,97,0.00,,,0.00,0.000000,,2013-06-05 06:02:00,
2013-06-05 02:12:00,42.0,41.0,-100.00,ESE,110,2.0,4.0,97,0.00,,,0.00,0.000000,,2013-06-05 06:12:00,
2013-06-05 02:22:00,42.0,41.0,-100.00,ESE,110,2.0,4.0,97,0.00,,,0.00,0.000000,,2013-06-05 06:22:00,
2013-06-05 02:52:00,41.0,40.0,-100.00,SSW,211,2.0,4.0,97,0.00,,,0.00,0.000000,,2013-06-05 06:52:00,
2013-06-05 03:02:00,41.0,40.0,-100.00,SSW,211,2.0,4.0,97,0.00,,,0.00,0.000000,,2013-06-05 07:02:00,
2013-06-05 03:12:00,41.0,40.0,-100.00,SSW,211,2.0,4.0,97,0.00,,,0.00,0.000000,,2013-06-05 07:12:00,
2013-06-05 03:22:00,41.0,40.0,-100.00,SSW,211,2.0,4.0,97,0.00,,,0.00,0.000000,,2013-06-05 07:22:00,
2013-06-05 03:52:00,40.0,39.0,-100.00,SE,126,3.0,4.0,95,0.00,,,0.00,0.000000,,2013-06-05 07:52:00,
2013-06-05 04:02:00,40.0,39.0,-100.00,SE,126,3.0,4.0,95,0.00,,,0.00,0.000000,,2013-06-05 08:02:00,
2013-06-05 04:12:00,40.0,39.0,-100.00,SE,126,3.0,4.0,95,0.00,,,0.00,0.000000,,2013-06-05 08:12:00,
2013-06-05 04:22:00,40.0,39.0,-100.00,SE,126,3.0,4.0,95,0.00,,,0.00,0.000000,,2013-06-05 08:22:00,
2013-06-05 04:52:00,38.0,37.0,-100.00,SE,127,3.0,5.0,98,0.00,,,0.00,0.000000,,2013-06-05 08:52:00,
2013-06-05 05:02:00,38.0,37.0,-100.00,SE,127,3.0,5.0,98,0.00,,,0.00,0.000000,,2013-06-05 09:02:00,
2013-06-05 05:12:00,38.0,37.0,-100.00,SE,127,3.0,5.0,98,0.00,,,0.00,0.000000,,2013-06-05 09:12:00,
2013-06-05 05:22:00,38.0,37.0,-100.00,SE,127,3.0,5.0,98,0.00,,,0.00,0.000000,,2013-06-05 09:22:00,
2013-06-05 05:53:00,36.0,35.0,-100.00,SE,142,1.0,4.0,98,0.00,,,0.00,3.000000,,2013-06-05 09:53:00,
2013-06-05 06:03:00,36.0,35.0,-100.00,SE,142,1.0,4.0,98,0.00,,,0.00,3.000000,,2013-06-05 10:03:00,
2013-06-05 06:13:00,36.0,35.0,-100.00,SE,142,1.0,4.0,98,0.00,,,0.00,3.000000,,2013-06-05 10:13:00,
2013-06-05 06:22:00,36.0,35.0,-100.00,SE,142,1.0,4.0,98,0.00,,,0.00,3.000000,,2013-06-05 10:22:00,
2013-06-05 06:53:00,38.0,37.0,-100.00,SE,134,1.0,3.0,98,0.00,,,0.00,33.000000,,2013-06-05 10:53:00,
2013-06-05 07:02:00,38.0,37.0,-100.00,SE,134,1.0,3.0,98,0.00,,,0.00,33.000000,,2013-06-05 11:02:00,
2013-06-05 07:13:00,38.0,37.0,-100.00,SE,134,1.0,3.0,98,0.00,,,0.00,33.000000,,2013-06-05 11:13:00,
2013-06-05 07:22:00,38.0,37.0,-100.00,SE,134,1.0,3.0,98,0.00,,,0.00,33.000000,,2013-06-05 11:22:00,
2013-06-05 07:52:00,49.0,43.0,-100.00,NE,47,1.0,2.0,79,0.00,,,0.00,237.000000,,2013-06-05 11:52:00,
2013-06-05 08:02:00,49.0,43.0,-100.00,NE,47,1.0,2.0,79,0.00,,,0.00,237.000000,,2013-06-05 12:02:00,
2013-06-05 08:12:00,49.0,43.0,-100.00,NE,47,1.0,2.0,79,0.00,,,0.00,237.000000,,2013-06-05 12:12:00,
2013-06-05 08:22:00,49.0,43.0,-100.00,NE,47,1.0,2.0,79,0.00,,,0.00,237.000000,,2013-06-05 12:22:00,
2013-06-05 08:52:00,55.0,42.0,-100.00,West,263,3.0,5.0,61,0.00,,,0.00,395.000000,,2013-06-05 12:52:00,
2013-06-05 09:53:00,58.0,39.0,-100.00,West,270,4.0,11.0,49,0.00,,,0.00,580.000000,,2013-06-05 13:53:00,
2013-06-05 10:02:00,58.0,39.0,-100.00,West,270,4.0,11.0,49,0.00,,,0.00,580.000000,,2013-06-05 14:02:00,
2013-06-05 10:12:00,58.0,39.0,-100.00,West,270,4.0,11.0,49,0.00,,,0.00,580.000000,,2013-06-05 14:12:00,
2013-06-05 10:22:00,58.0,39.0,-100.00,West,270,4.0,11.0,49,0.00,,,0.00,580.000000,,2013-06-05 14:22:00,
2013-06-05 10:52:00,61.0,38.0,-100.00,NW,305,5.0,12.0,42,0.00,,,0.00,741.000000,,2013-06-05 14:52:00,
2013-06-05 11:03:00,61.0,38.0,-100.00,NW,305,5.0,12.0,42,0.00,,,0.00,741.000000,,2013-06-05 15:03:00,
2013-06-05 11:12:00,61.0,38.0,-100.00,NW,305,5.0,12.0,42,0.00,,,0.00,741.000000,,2013-06-05 15:12:00,
2013-06-05 11:23:00,61.0,38.0,-100.00,NW,305,5.0,12.0,42,0.00,,,0.00,741.000000,,2013-06-05 15:23:00,
2013-06-05 11:53:00,62.0,37.0,-100.00,WNW,299,5.0,13.0,40,0.00,,,0.00,851.000000,,2013-06-05 15:53:00,
2013-06-05 12:04:00,62.0,37.0,-100.00,WNW,299,5.0,13.0,40,0.00,,,0.00,851.000000,,2013-06-05 16:04:00,
2013-06-05 12:13:00,62.0,37.0,-100.00,WNW,299,5.0,13.0,40,0.00,,,0.00,851.000000,,2013-06-05 16:13:00,
2013-06-05 12:23:00,62.0,37.0,-100.00,WNW,299,5.0,13.0,40,0.00,,,0.00,851.000000,,2013-06-05 16:23:00,
2013-06-05 12:54:00,64.0,38.0,-100.00,WNW,284,5.0,13.0,38,0.00,,,0.00,938.000000,,2013-06-05 16:54:00,
2013-06-05 13:02:00,64.0,38.0,-100.00,WNW,284,5.0,13.0,38,0.00,,,0.00,938.000000,,2013-06-05 17:02:00,
2013-06-05 13:13:00,64.0,38.0,-100.00,WNW,284,5.0,13.0,38,0.00,,,0.00,938.000000,,2013-06-05 17:13:00,
2013-06-05 13:22:00,64.0,38.0,-100.00,WNW,284,5.0,13.0,38,0.00,,,0.00,938.000000,,2013-06-05 17:22:00,
2013-06-05 13:52:00,65.0,37.0,-100.00,West,260,5.0,14.0,35,0.00,,,0.00,968.000000,,2013-06-05 17:52:00,
2013-06-05 14:02:00,65.0,37.0,-100.00,West,260,5.0,14.0,35,0.00,,,0.00,968.000000,,2013-06-05 18:02:00,
2013-06-05 14:13:00,65.0,37.0,-100.00,West,260,5.0,14.0,35,0.00,,,0.00,968.000000,,2013-06-05 18:13:00,
2013-06-05 14:22:00,65.0,37.0,-100.00,West,260,5.0,14.0,35,0.00,,,0.00,968.000000,,2013-06-05 18:22:00,
2013-06-05 14:52:00,67.0,36.0,-100.00,WNW,285,6.0,14.0,32,0.00,,,0.00,944.000000,,2013-06-05 18:52:00,
2013-06-05 15:03:00,67.0,36.0,-100.00,WNW,285,6.0,14.0,32,0.00,,,0.00,944.000000,,2013-06-05 19:03:00,
2013-06-05 15:13:00,67.0,36.0,-100.00,WNW,285,6.0,14.0,32,0.00,,,0.00,944.000000,,2013-06-05 19:13:00,
2013-06-05 15:23:00,67.0,36.0,-100.00,WNW,285,6.0,14.0,32,0.00,,,0.00,944.000000,,2013-06-05 19:23:00,
2013-06-05 15:53:00,68.0,34.0,-100.00,NW,313,7.0,14.0,28,0.00,,,0.00,872.000000,,2013-06-05 19:53:00,
2013-06-05 16:03:00,68.0,34.0,-100.00,NW,313,7.0,14.0,28,0.00,,,0.00,872.000000,,2013-06-05 20:03:00,
2013-06-05 16:12:00,68.0,34.0,-100.00,NW,313,7.0,14.0,28,0.00,,,0.00,872.000000,,2013-06-05 20:12:00,
2013-06-05 16:23:00,68.0,34.0,-100.00,NW,313,7.0,14.0,28,0.00,,,0.00,872.000000,,2013-06-05 20:23:00,
2013-06-05 16:52:00,66.0,31.0,-100.00,WNW,303,6.0,13.0,27,0.00,,,0.00,686.000000,,2013-06-05 20:52:00,
2013-06-05 17:02:00,66.0,31.0,-100.00,WNW,303,6.0,13.0,27,0.00,,,0.00,686.000000,,2013-06-05 21:02:00,
2013-06-05 17:12:00,66.0,31.0,-100.00,WNW,303,6.0,13.0,27,0.00,,,0.00,686.000000,,2013-06-05 21:12:00,
2013-06-05 17:22:00,66.0,31.0,-100.00,WNW,303,6.0,13.0,27,0.00,,,0.00,686.000000,,2013-06-05 21:22:00,
2013-06-05 17:53:00,64.0,34.0,-100.00,WNW,293,4.0,13.0,33,0.00,,,0.00,296.000000,,2013-06-05 21:53:00,
2013-06-05 18:03:00,64.0,34.0,-100.00,WNW,293,4.0,13.0,33,0.00,,,0.00,296.000000,,2013-06-05 22:03:00,
2013-06-05 18:13:00,64.0,34.0,-100.00,WNW,293,4.0,13.0,33,0.00,,,0.00,296.000000,,2013-06-05 22:13:00,
2013-06-05 18:22:00,64.0,34.0,-100.00,WNW,293,4.0,13.0,33,0.00,,,0.00,296.000000,,2013-06-05 22:22:00,
2013-06-05 18:53:00,61.0,36.0,-100.00,WNW,287,3.0,10.0,39,0.00,,,0.00,134.000000,,2013-06-05 22:53:00,
2013-06-05 19:02:00,61.0,36.0,-100.00,WNW,287,3.0,10.0,39,0.00,,,0.00,134.000000,,2013-06-05 23:02:00,
2013-06-05 19:12:00,61.0,36.0,-100.00,WNW,287,3.0,10.0,39,0.00,,,0.00,134.000000,,2013-06-05 23:12:00,
2013-06-05 19:22:00,61.0,36.0,-100.00,WNW,287,3.0,10.0,39,0.00,,,0.00,134.000000,,2013-06-05 23:22:00,
2013-06-05 19:53:00,59.0,39.0,-100.00,West,279,2.0,7.0,47,0.00,,,0.00,59.000000,,2013-06-05 23:53:00,
2013-06-05 20:02:00,59.0,39.0,-100.00,West,279,2.0,7.0,47,0.00,,,0.00,59.000000,,2013-06-06 00:02:00,
2013-06-05 20:12:00,59.0,39.0,-100.00,West,279,2.0,7.0,47,0.00,,,0.00,59.000000,,2013-06-06 00:12:00,
2013-06-05 20:22:00,59.0,39.0,-100.00,West,279,2.0,7.0,47,0.00,,,0.00,59.000000,,2013-06-06 00:22:00,
2013-06-05 20:52:00,54.0,41.0,-100.00,SE,132,2.0,5.0,62,0.00,,,0.00,26.000000,,2013-06-06 00:52:00,
2013-06-05 21:02:00,54.0,41.0,-100.00,SE,132,2.0,5.0,62,0.00,,,0.00,26.000000,,2013-06-06 01:02:00,
2013-06-05 21:13:00,54.0,41.0,-100.00,SE,132,2.0,5.0,62,0.00,,,0.00,26.000000,,2013-06-06 01:13:00,
2013-06-05 21:22:00,54.0,41.0,-100.00,SE,132,2.0,5.0,62,0.00,,,0.00,26.000000,,2013-06-06 01:22:00,
2013-06-05 21:53:00,51.0,42.0,-100.00,SE,126,2.0,3.0,72,0.00,,,0.00,0.000000,,2013-06-06 01:53:00,
2013-06-05 22:02:00,51.0,42.0,-100.00,SE,126,2.0,3.0,72,0.00,,,0.00,0.000000,,2013-06-06 02:02:00,
2013-06-05 22:12:00,51.0,42.0,-100.00,SE,126,2.0,3.0,72,0.00,,,0.00,0.000000,,2013-06-06 02:12:00,
2013-06-05 22:22:00,51.0,42.0,-100.00,SE,126,2.0,3.0,72,0.00,,,0.00,0.000000,,2013-06-06 02:22:00,
2013-06-05 23:02:00,49.0,42.0,-100.00,ESE,119,2.0,3.0,77,0.00,,,0.00,0.000000,,2013-06-06 03:02:00,
2013-06-05 23:12:00,49.0,42.0,-100.00,ESE,119,2.0,3.0,77,0.00,,,0.00,0.000000,,2013-06-06 03:12:00,
2013-06-05 23:22:00,49.0,42.0,-100.00,ESE,119,2.0,3.0,77,0.00,,,0.00,0.000000,,2013-06-06 03:22:00,
2013-06-05 23:53:00,44.0,40.0,-100.00,SSE,150,1.0,3.0,86,0.00,,,0.00,0.000000,,2013-06-06 03:53:00,